sensor_id;sensor_type;location;lat;lon;timestamp;P1;durP1;ratioP1;P2;durP2;ratioP2
24787;SDS011;12883;52.662;5.196;2023-03-01T00:01:13;23.50;;;23.40;;
24787;SDS011;12883;52.662;5.196;2023-03-01T00:03:41;22.93;;;22.83;;
24787;SDS011;12883;52.662;5.196;2023-03-01T00:06:07;23.63;;;23.53;;
24787;SDS011;12883;52.662;5.196;2023-03-01T00:08:32;22.73;;;22.63;;
24787;SDS011;12883;52.662;5.196;2023-03-01T00:11:02;21.83;;;21.73;;
24787;SDS011;12883;52.662;5.196;2023-03-01T00:13:34;21.87;;;21.77;;
24787;SDS011;12883;52.662;5.196;2023-03-01T00:16:03;23.53;;;23.43;;
24787;SDS011;12883;52.662;5.196;2023-03-01T00:18:30;22.53;;;22.43;;
24787;SDS011;12883;52.662;5.196;2023-03-01T00:20:55;22.87;;;22.77;;
24787;SDS011;12883;52.662;5.196;2023-03-01T00:23:21;22.10;;;22.00;;
24787;SDS011;12883;52.662;5.196;2023-03-01T00:25:48;23.83;;;23.73;;
24787;SDS011;12883;52.662;5.196;2023-03-01T00:28:13;23.63;;;23.53;;
24787;SDS011;12883;52.662;5.196;2023-03-01T00:30:39;26.30;;;26.20;;
24787;SDS011;12883;52.662;5.196;2023-03-01T00:33:04;25.80;;;25.70;;
24787;SDS011;12883;52.662;5.196;2023-03-01T00:35:29;26.47;;;26.37;;
24787;SDS011;12883;52.662;5.196;2023-03-01T00:37:57;26.73;;;26.63;;
24787;SDS011;12883;52.662;5.196;2023-03-01T00:40:26;26.83;;;26.73;;
24787;SDS011;12883;52.662;5.196;2023-03-01T00:42:53;25.57;;;25.47;;
24787;SDS011;12883;52.662;5.196;2023-03-01T00:45:18;24.73;;;24.63;;
24787;SDS011;12883;52.662;5.196;2023-03-01T00:47:44;25.43;;;25.33;;
24787;SDS011;12883;52.662;5.196;2023-03-01T00:50:09;23.33;;;23.23;;
24787;SDS011;12883;52.662;5.196;2023-03-01T00:52:36;24.60;;;24.50;;
24787;SDS011;12883;52.662;5.196;2023-03-01T00:55:01;23.93;;;23.83;;
24787;SDS011;12883;52.662;5.196;2023-03-01T00:57:27;25.00;;;24.90;;
24787;SDS011;12883;52.662;5.196;2023-03-01T00:59:52;24.47;;;24.37;;
24787;SDS011;12883;52.662;5.196;2023-03-01T01:02:18;26.30;;;26.20;;
24787;SDS011;12883;52.662;5.196;2023-03-01T01:04:45;27.73;;;27.53;;
24787;SDS011;12883;52.662;5.196;2023-03-01T01:07:11;26.47;;;26.37;;
24787;SDS011;12883;52.662;5.196;2023-03-01T01:09:36;26.23;;;26.13;;
24787;SDS011;12883;52.662;5.196;2023-03-01T01:12:02;25.00;;;24.90;;
24787;SDS011;12883;52.662;5.196;2023-03-01T01:14:27;25.57;;;25.47;;
24787;SDS011;12883;52.662;5.196;2023-03-01T01:16:53;26.70;;;26.60;;
24787;SDS011;12883;52.662;5.196;2023-03-01T01:19:19;28.30;;;28.20;;
24787;SDS011;12883;52.662;5.196;2023-03-01T01:21:44;26.70;;;26.60;;
24787;SDS011;12883;52.662;5.196;2023-03-01T01:24:10;25.70;;;25.60;;
24787;SDS011;12883;52.662;5.196;2023-03-01T01:26:36;25.87;;;25.77;;
24787;SDS011;12883;52.662;5.196;2023-03-01T01:29:03;26.10;;;26.00;;
24787;SDS011;12883;52.662;5.196;2023-03-01T01:31:29;22.17;;;22.07;;
24787;SDS011;12883;52.662;5.196;2023-03-01T01:33:59;21.67;;;21.57;;
24787;SDS011;12883;52.662;5.196;2023-03-01T01:36:26;25.97;;;25.87;;
24787;SDS011;12883;52.662;5.196;2023-03-01T01:38:51;23.47;;;23.37;;
24787;SDS011;12883;52.662;5.196;2023-03-01T01:41:17;23.00;;;22.90;;
24787;SDS011;12883;52.662;5.196;2023-03-01T01:43:45;19.70;;;19.50;;
24787;SDS011;12883;52.662;5.196;2023-03-01T01:46:15;20.33;;;20.03;;
24787;SDS011;12883;52.662;5.196;2023-03-01T01:48:48;19.00;;;18.90;;
24787;SDS011;12883;52.662;5.196;2023-03-01T01:51:18;22.57;;;22.47;;
24787;SDS011;12883;52.662;5.196;2023-03-01T01:53:50;22.83;;;22.73;;
24787;SDS011;12883;52.662;5.196;2023-03-01T01:56:20;23.10;;;23.00;;
24787;SDS011;12883;52.662;5.196;2023-03-01T01:58:48;26.97;;;26.87;;
24787;SDS011;12883;52.662;5.196;2023-03-01T02:01:15;25.13;;;25.03;;
24787;SDS011;12883;52.662;5.196;2023-03-01T02:03:42;23.70;;;23.60;;
24787;SDS011;12883;52.662;5.196;2023-03-01T02:08:35;25.30;;;25.20;;
24787;SDS011;12883;52.662;5.196;2023-03-01T02:11:03;23.43;;;23.33;;
24787;SDS011;12883;52.662;5.196;2023-03-01T02:13:31;24.93;;;24.83;;
24787;SDS011;12883;52.662;5.196;2023-03-01T02:15:58;26.03;;;25.83;;
24787;SDS011;12883;52.662;5.196;2023-03-01T02:18:23;24.73;;;24.43;;
24787;SDS011;12883;52.662;5.196;2023-03-01T02:21:08;27.10;;;26.80;;
24787;SDS011;12883;52.662;5.196;2023-03-01T02:23:45;25.60;;;25.30;;
24787;SDS011;12883;52.662;5.196;2023-03-01T02:28:50;24.83;;;24.73;;
24787;SDS011;12883;52.662;5.196;2023-03-01T02:31:17;24.37;;;24.27;;
24787;SDS011;12883;52.662;5.196;2023-03-01T02:34:03;25.83;;;25.43;;
24787;SDS011;12883;52.662;5.196;2023-03-01T02:36:31;26.70;;;26.20;;
24787;SDS011;12883;52.662;5.196;2023-03-01T02:39:05;23.93;;;23.53;;
24787;SDS011;12883;52.662;5.196;2023-03-01T02:41:35;24.53;;;24.23;;
24787;SDS011;12883;52.662;5.196;2023-03-01T02:44:02;27.03;;;26.30;;
24787;SDS011;12883;52.662;5.196;2023-03-01T02:46:28;27.77;;;26.87;;
24787;SDS011;12883;52.662;5.196;2023-03-01T02:48:55;25.90;;;25.00;;
24787;SDS011;12883;52.662;5.196;2023-03-01T02:51:24;24.63;;;24.23;;
24787;SDS011;12883;52.662;5.196;2023-03-01T02:54:15;27.23;;;26.93;;
24787;SDS011;12883;52.662;5.196;2023-03-01T02:56:47;26.63;;;25.97;;
24787;SDS011;12883;52.662;5.196;2023-03-01T02:59:14;24.10;;;23.50;;
24787;SDS011;12883;52.662;5.196;2023-03-01T03:01:41;26.90;;;26.50;;
24787;SDS011;12883;52.662;5.196;2023-03-01T03:04:08;26.43;;;25.93;;
24787;SDS011;12883;52.662;5.196;2023-03-01T03:06:36;24.87;;;24.47;;
24787;SDS011;12883;52.662;5.196;2023-03-01T03:09:02;22.47;;;22.27;;
24787;SDS011;12883;52.662;5.196;2023-03-01T03:11:29;24.40;;;24.03;;
24787;SDS011;12883;52.662;5.196;2023-03-01T03:13:55;22.03;;;21.43;;
24787;SDS011;12883;52.662;5.196;2023-03-01T03:16:21;21.53;;;21.13;;
24787;SDS011;12883;52.662;5.196;2023-03-01T03:18:46;23.70;;;23.40;;
24787;SDS011;12883;52.662;5.196;2023-03-01T03:21:12;22.53;;;22.23;;
24787;SDS011;12883;52.662;5.196;2023-03-01T03:23:38;20.60;;;20.40;;
24787;SDS011;12883;52.662;5.196;2023-03-01T03:26:04;17.67;;;17.67;;
24787;SDS011;12883;52.662;5.196;2023-03-01T03:28:31;18.30;;;18.23;;
24787;SDS011;12883;52.662;5.196;2023-03-01T03:30:57;19.17;;;18.83;;
24787;SDS011;12883;52.662;5.196;2023-03-01T03:33:23;19.40;;;19.10;;
24787;SDS011;12883;52.662;5.196;2023-03-01T03:35:49;21.13;;;20.33;;
24787;SDS011;12883;52.662;5.196;2023-03-01T03:38:15;19.93;;;19.53;;
24787;SDS011;12883;52.662;5.196;2023-03-01T03:41:00;21.80;;;21.30;;
24787;SDS011;12883;52.662;5.196;2023-03-01T03:43:28;21.40;;;20.90;;
24787;SDS011;12883;52.662;5.196;2023-03-01T03:45:54;23.07;;;22.53;;
24787;SDS011;12883;52.662;5.196;2023-03-01T03:48:21;23.97;;;23.57;;
24787;SDS011;12883;52.662;5.196;2023-03-01T03:50:49;24.10;;;23.80;;
24787;SDS011;12883;52.662;5.196;2023-03-01T03:53:15;23.87;;;23.57;;
24787;SDS011;12883;52.662;5.196;2023-03-01T03:55:41;23.03;;;22.77;;
24787;SDS011;12883;52.662;5.196;2023-03-01T03:58:07;23.97;;;23.77;;
24787;SDS011;12883;52.662;5.196;2023-03-01T04:00:38;26.27;;;26.17;;
24787;SDS011;12883;52.662;5.196;2023-03-01T04:03:05;23.57;;;23.47;;
24787;SDS011;12883;52.662;5.196;2023-03-01T04:05:32;23.37;;;23.17;;
24787;SDS011;12883;52.662;5.196;2023-03-01T04:07:57;22.57;;;22.33;;
24787;SDS011;12883;52.662;5.196;2023-03-01T04:10:56;22.57;;;22.10;;
24787;SDS011;12883;52.662;5.196;2023-03-01T04:13:21;21.70;;;21.30;;
24787;SDS011;12883;52.662;5.196;2023-03-01T04:15:53;21.33;;;20.93;;
24787;SDS011;12883;52.662;5.196;2023-03-01T04:18:20;22.20;;;21.53;;
24787;SDS011;12883;52.662;5.196;2023-03-01T04:20:47;23.40;;;22.83;;
24787;SDS011;12883;52.662;5.196;2023-03-01T04:23:17;21.50;;;21.30;;
24787;SDS011;12883;52.662;5.196;2023-03-01T04:28:30;21.60;;;21.33;;
24787;SDS011;12883;52.662;5.196;2023-03-01T04:31:01;19.87;;;19.77;;
24787;SDS011;12883;52.662;5.196;2023-03-01T04:33:37;20.17;;;20.07;;
24787;SDS011;12883;52.662;5.196;2023-03-01T04:36:03;20.87;;;20.77;;
24787;SDS011;12883;52.662;5.196;2023-03-01T04:38:30;22.60;;;22.40;;
24787;SDS011;12883;52.662;5.196;2023-03-01T04:40:55;21.03;;;20.73;;
24787;SDS011;12883;52.662;5.196;2023-03-01T04:43:21;22.50;;;22.00;;
24787;SDS011;12883;52.662;5.196;2023-03-01T04:45:46;21.60;;;21.30;;
24787;SDS011;12883;52.662;5.196;2023-03-01T04:48:11;22.07;;;21.77;;
24787;SDS011;12883;52.662;5.196;2023-03-01T04:50:37;22.80;;;22.60;;
24787;SDS011;12883;52.662;5.196;2023-03-01T04:53:02;23.90;;;23.60;;
24787;SDS011;12883;52.662;5.196;2023-03-01T04:55:28;21.00;;;20.90;;
24787;SDS011;12883;52.662;5.196;2023-03-01T04:57:53;22.37;;;22.27;;
24787;SDS011;12883;52.662;5.196;2023-03-01T05:00:19;21.13;;;20.93;;
24787;SDS011;12883;52.662;5.196;2023-03-01T05:02:47;21.17;;;20.97;;
24787;SDS011;12883;52.662;5.196;2023-03-01T05:05:22;21.27;;;21.17;;
24787;SDS011;12883;52.662;5.196;2023-03-01T05:07:56;21.70;;;21.50;;
24787;SDS011;12883;52.662;5.196;2023-03-01T05:10:24;24.20;;;23.50;;
24787;SDS011;12883;52.662;5.196;2023-03-01T05:12:51;26.93;;;26.13;;
24787;SDS011;12883;52.662;5.196;2023-03-01T05:15:18;23.10;;;22.63;;
24787;SDS011;12883;52.662;5.196;2023-03-01T05:17:43;22.80;;;22.60;;
24787;SDS011;12883;52.662;5.196;2023-03-01T05:20:09;21.37;;;21.13;;
24787;SDS011;12883;52.662;5.196;2023-03-01T05:22:35;21.10;;;21.00;;
24787;SDS011;12883;52.662;5.196;2023-03-01T05:25:02;22.73;;;22.50;;
24787;SDS011;12883;52.662;5.196;2023-03-01T05:27:27;21.87;;;21.67;;
24787;SDS011;12883;52.662;5.196;2023-03-01T05:29:54;23.27;;;23.03;;
24787;SDS011;12883;52.662;5.196;2023-03-01T05:32:20;21.70;;;21.47;;
24787;SDS011;12883;52.662;5.196;2023-03-01T05:34:45;22.50;;;22.00;;
24787;SDS011;12883;52.662;5.196;2023-03-01T05:37:11;24.43;;;24.03;;
24787;SDS011;12883;52.662;5.196;2023-03-01T05:39:37;25.20;;;24.53;;
24787;SDS011;12883;52.662;5.196;2023-03-01T05:42:02;26.97;;;26.07;;
24787;SDS011;12883;52.662;5.196;2023-03-01T05:44:28;25.90;;;25.27;;
24787;SDS011;12883;52.662;5.196;2023-03-01T05:46:54;28.27;;;27.40;;
24787;SDS011;12883;52.662;5.196;2023-03-01T05:49:20;25.73;;;24.97;;
24787;SDS011;12883;52.662;5.196;2023-03-01T05:51:49;27.40;;;26.77;;
24787;SDS011;12883;52.662;5.196;2023-03-01T05:54:17;26.53;;;25.93;;
24787;SDS011;12883;52.662;5.196;2023-03-01T05:56:43;29.80;;;29.10;;
24787;SDS011;12883;52.662;5.196;2023-03-01T05:59:09;24.37;;;23.90;;
24787;SDS011;12883;52.662;5.196;2023-03-01T06:01:36;23.87;;;23.47;;
24787;SDS011;12883;52.662;5.196;2023-03-01T06:04:01;19.10;;;18.90;;
24787;SDS011;12883;52.662;5.196;2023-03-01T06:06:28;18.77;;;18.47;;
24787;SDS011;12883;52.662;5.196;2023-03-01T06:08:54;20.77;;;20.57;;
24787;SDS011;12883;52.662;5.196;2023-03-01T06:11:20;17.70;;;17.40;;
24787;SDS011;12883;52.662;5.196;2023-03-01T06:13:46;19.80;;;19.40;;
24787;SDS011;12883;52.662;5.196;2023-03-01T06:16:12;18.60;;;18.37;;
24787;SDS011;12883;52.662;5.196;2023-03-01T06:18:39;16.50;;;16.40;;
24787;SDS011;12883;52.662;5.196;2023-03-01T06:21:05;16.53;;;16.43;;
24787;SDS011;12883;52.662;5.196;2023-03-01T06:23:32;15.90;;;15.90;;
24787;SDS011;12883;52.662;5.196;2023-03-01T06:25:58;17.47;;;17.30;;
24787;SDS011;12883;52.662;5.196;2023-03-01T06:28:23;17.20;;;17.10;;
24787;SDS011;12883;52.662;5.196;2023-03-01T06:30:49;17.90;;;17.60;;
24787;SDS011;12883;52.662;5.196;2023-03-01T06:33:15;20.73;;;20.33;;
24787;SDS011;12883;52.662;5.196;2023-03-01T06:35:40;19.00;;;18.87;;
24787;SDS011;12883;52.662;5.196;2023-03-01T06:38:05;20.17;;;20.07;;
24787;SDS011;12883;52.662;5.196;2023-03-01T06:40:31;19.73;;;19.43;;
24787;SDS011;12883;52.662;5.196;2023-03-01T06:43:00;26.77;;;25.90;;
24787;SDS011;12883;52.662;5.196;2023-03-01T06:45:25;24.10;;;23.57;;
24787;SDS011;12883;52.662;5.196;2023-03-01T06:47:51;23.87;;;23.27;;
24787;SDS011;12883;52.662;5.196;2023-03-01T06:50:16;21.40;;;21.30;;
24787;SDS011;12883;52.662;5.196;2023-03-01T06:52:42;20.33;;;20.23;;
24787;SDS011;12883;52.662;5.196;2023-03-01T06:55:09;22.33;;;22.23;;
24787;SDS011;12883;52.662;5.196;2023-03-01T06:57:35;20.20;;;20.10;;
24787;SDS011;12883;52.662;5.196;2023-03-01T07:00:01;19.20;;;19.10;;
24787;SDS011;12883;52.662;5.196;2023-03-01T07:02:27;21.80;;;21.70;;
24787;SDS011;12883;52.662;5.196;2023-03-01T07:04:52;23.10;;;22.40;;
24787;SDS011;12883;52.662;5.196;2023-03-01T07:07:18;21.77;;;21.37;;
24787;SDS011;12883;52.662;5.196;2023-03-01T07:09:44;24.47;;;24.27;;
24787;SDS011;12883;52.662;5.196;2023-03-01T07:12:10;26.73;;;26.50;;
24787;SDS011;12883;52.662;5.196;2023-03-01T07:14:35;27.30;;;27.10;;
24787;SDS011;12883;52.662;5.196;2023-03-01T07:17:01;27.93;;;27.63;;
24787;SDS011;12883;52.662;5.196;2023-03-01T07:19:26;29.93;;;29.63;;
24787;SDS011;12883;52.662;5.196;2023-03-01T07:21:52;29.90;;;29.60;;
24787;SDS011;12883;52.662;5.196;2023-03-01T07:24:17;29.83;;;29.63;;
24787;SDS011;12883;52.662;5.196;2023-03-01T07:26:42;30.77;;;30.47;;
24787;SDS011;12883;52.662;5.196;2023-03-01T07:29:09;30.23;;;30.03;;
24787;SDS011;12883;52.662;5.196;2023-03-01T07:31:35;30.27;;;30.07;;
24787;SDS011;12883;52.662;5.196;2023-03-01T07:34:01;29.87;;;29.67;;
24787;SDS011;12883;52.662;5.196;2023-03-01T07:36:27;30.47;;;30.30;;
24787;SDS011;12883;52.662;5.196;2023-03-01T07:38:52;32.83;;;32.63;;
24787;SDS011;12883;52.662;5.196;2023-03-01T07:41:20;32.27;;;32.07;;
24787;SDS011;12883;52.662;5.196;2023-03-01T07:43:46;36.00;;;35.80;;
24787;SDS011;12883;52.662;5.196;2023-03-01T07:46:11;34.20;;;33.90;;
24787;SDS011;12883;52.662;5.196;2023-03-01T07:48:37;36.47;;;36.27;;
24787;SDS011;12883;52.662;5.196;2023-03-01T07:51:03;37.27;;;36.90;;
24787;SDS011;12883;52.662;5.196;2023-03-01T07:53:30;41.00;;;40.40;;
24787;SDS011;12883;52.662;5.196;2023-03-01T07:56:00;40.40;;;40.07;;
24787;SDS011;12883;52.662;5.196;2023-03-01T07:58:27;38.17;;;37.77;;
24787;SDS011;12883;52.662;5.196;2023-03-01T08:00:52;41.40;;;40.90;;
24787;SDS011;12883;52.662;5.196;2023-03-01T08:03:17;39.50;;;39.00;;
24787;SDS011;12883;52.662;5.196;2023-03-01T08:05:42;39.20;;;38.70;;
24787;SDS011;12883;52.662;5.196;2023-03-01T08:08:08;39.73;;;39.23;;
24787;SDS011;12883;52.662;5.196;2023-03-01T08:10:33;37.93;;;37.53;;
24787;SDS011;12883;52.662;5.196;2023-03-01T08:12:58;38.37;;;37.97;;
24787;SDS011;12883;52.662;5.196;2023-03-01T08:15:24;37.13;;;36.83;;
24787;SDS011;12883;52.662;5.196;2023-03-01T08:17:49;36.90;;;36.27;;
24787;SDS011;12883;52.662;5.196;2023-03-01T08:20:15;37.17;;;36.47;;
24787;SDS011;12883;52.662;5.196;2023-03-01T08:22:41;37.47;;;36.87;;
24787;SDS011;12883;52.662;5.196;2023-03-01T08:25:07;36.43;;;35.77;;
24787;SDS011;12883;52.662;5.196;2023-03-01T08:27:33;35.40;;;34.80;;
24787;SDS011;12883;52.662;5.196;2023-03-01T08:29:58;34.80;;;34.30;;
24787;SDS011;12883;52.662;5.196;2023-03-01T08:32:23;34.23;;;33.53;;
24787;SDS011;12883;52.662;5.196;2023-03-01T08:34:49;35.03;;;34.43;;
24787;SDS011;12883;52.662;5.196;2023-03-01T08:37:14;36.97;;;36.33;;
24787;SDS011;12883;52.662;5.196;2023-03-01T08:39:39;37.33;;;36.43;;
24787;SDS011;12883;52.662;5.196;2023-03-01T08:42:05;37.97;;;37.17;;
24787;SDS011;12883;52.662;5.196;2023-03-01T08:44:30;36.93;;;36.17;;
24787;SDS011;12883;52.662;5.196;2023-03-01T08:46:55;37.97;;;37.17;;
24787;SDS011;12883;52.662;5.196;2023-03-01T08:49:22;38.00;;;37.33;;
24787;SDS011;12883;52.662;5.196;2023-03-01T08:51:48;36.77;;;36.33;;
24787;SDS011;12883;52.662;5.196;2023-03-01T08:54:17;40.33;;;39.73;;
24787;SDS011;12883;52.662;5.196;2023-03-01T08:56:44;37.23;;;36.83;;
24787;SDS011;12883;52.662;5.196;2023-03-01T08:59:10;37.13;;;36.73;;
24787;SDS011;12883;52.662;5.196;2023-03-01T09:01:36;37.30;;;36.90;;
24787;SDS011;12883;52.662;5.196;2023-03-01T09:04:02;39.60;;;39.30;;
24787;SDS011;12883;52.662;5.196;2023-03-01T09:06:29;39.83;;;39.40;;
24787;SDS011;12883;52.662;5.196;2023-03-01T09:08:56;40.07;;;39.67;;
24787;SDS011;12883;52.662;5.196;2023-03-01T09:11:21;39.77;;;39.23;;
24787;SDS011;12883;52.662;5.196;2023-03-01T09:13:47;41.60;;;41.10;;
24787;SDS011;12883;52.662;5.196;2023-03-01T09:16:15;42.20;;;41.90;;
24787;SDS011;12883;52.662;5.196;2023-03-01T09:18:43;43.10;;;42.80;;
24787;SDS011;12883;52.662;5.196;2023-03-01T09:23:36;45.33;;;45.00;;
24787;SDS011;12883;52.662;5.196;2023-03-01T09:26:09;45.13;;;44.83;;
24787;SDS011;12883;52.662;5.196;2023-03-01T09:28:38;46.73;;;46.43;;
24787;SDS011;12883;52.662;5.196;2023-03-01T09:31:04;46.70;;;46.40;;
24787;SDS011;12883;52.662;5.196;2023-03-01T09:33:30;46.00;;;45.70;;
24787;SDS011;12883;52.662;5.196;2023-03-01T09:36:01;47.07;;;46.77;;
24787;SDS011;12883;52.662;5.196;2023-03-01T09:38:32;48.77;;;48.43;;
24787;SDS011;12883;52.662;5.196;2023-03-01T09:40:58;47.47;;;47.17;;
24787;SDS011;12883;52.662;5.196;2023-03-01T09:46:12;46.93;;;46.63;;
24787;SDS011;12883;52.662;5.196;2023-03-01T09:48:43;45.97;;;45.67;;
24787;SDS011;12883;52.662;5.196;2023-03-01T09:51:15;48.07;;;47.77;;
24787;SDS011;12883;52.662;5.196;2023-03-01T09:53:50;47.70;;;47.40;;
24787;SDS011;12883;52.662;5.196;2023-03-01T09:56:30;46.03;;;45.73;;
24787;SDS011;12883;52.662;5.196;2023-03-01T10:01:51;46.60;;;46.30;;
24787;SDS011;12883;52.662;5.196;2023-03-01T10:04:56;46.20;;;45.90;;
24787;SDS011;12883;52.662;5.196;2023-03-01T10:09:52;43.47;;;43.27;;
24787;SDS011;12883;52.662;5.196;2023-03-01T10:12:18;41.27;;;41.07;;
24787;SDS011;12883;52.662;5.196;2023-03-01T10:14:54;37.97;;;37.77;;
24787;SDS011;12883;52.662;5.196;2023-03-01T10:20:25;36.40;;;36.20;;
24787;SDS011;12883;52.662;5.196;2023-03-01T10:22:54;31.60;;;31.40;;
24787;SDS011;12883;52.662;5.196;2023-03-01T10:28:31;27.30;;;27.20;;
24787;SDS011;12883;52.662;5.196;2023-03-01T10:31:03;26.80;;;26.70;;
24787;SDS011;12883;52.662;5.196;2023-03-01T10:33:30;23.17;;;23.07;;
24787;SDS011;12883;52.662;5.196;2023-03-01T10:35:57;23.00;;;22.90;;
24787;SDS011;12883;52.662;5.196;2023-03-01T10:38:23;20.83;;;20.73;;
24787;SDS011;12883;52.662;5.196;2023-03-01T10:40:53;19.90;;;19.80;;
24787;SDS011;12883;52.662;5.196;2023-03-01T10:46:26;17.50;;;17.40;;
24787;SDS011;12883;52.662;5.196;2023-03-01T10:51:41;15.13;;;15.13;;
24787;SDS011;12883;52.662;5.196;2023-03-01T10:56:48;14.93;;;14.93;;
24787;SDS011;12883;52.662;5.196;2023-03-01T10:59:26;14.47;;;14.47;;
24787;SDS011;12883;52.662;5.196;2023-03-01T11:04:52;14.43;;;14.43;;
24787;SDS011;12883;52.662;5.196;2023-03-01T11:07:21;12.53;;;12.53;;
24787;SDS011;12883;52.662;5.196;2023-03-01T11:09:47;12.30;;;12.30;;
24787;SDS011;12883;52.662;5.196;2023-03-01T11:12:15;11.57;;;11.57;;
24787;SDS011;12883;52.662;5.196;2023-03-01T11:14:49;12.33;;;12.33;;
24787;SDS011;12883;52.662;5.196;2023-03-01T11:17:29;11.17;;;11.17;;
24787;SDS011;12883;52.662;5.196;2023-03-01T11:22:45;10.83;;;10.83;;
24787;SDS011;12883;52.662;5.196;2023-03-01T11:25:14;11.00;;;11.00;;
24787;SDS011;12883;52.662;5.196;2023-03-01T11:27:43;11.30;;;11.30;;
24787;SDS011;12883;52.662;5.196;2023-03-01T11:30:24;11.83;;;11.83;;
24787;SDS011;12883;52.662;5.196;2023-03-01T11:33:01;11.07;;;11.07;;
24787;SDS011;12883;52.662;5.196;2023-03-01T11:35:34;9.43;;;9.43;;
24787;SDS011;12883;52.662;5.196;2023-03-01T11:40:49;9.57;;;9.57;;
24787;SDS011;12883;52.662;5.196;2023-03-01T11:48:57;9.57;;;9.57;;
24787;SDS011;12883;52.662;5.196;2023-03-01T12:11:37;12.30;;;12.30;;
24787;SDS011;12883;52.662;5.196;2023-03-01T12:19:37;12.93;;;12.93;;
24787;SDS011;12883;52.662;5.196;2023-03-01T12:22:31;12.53;;;12.53;;
24787;SDS011;12883;52.662;5.196;2023-03-01T12:30:35;14.33;;;14.33;;
24787;SDS011;12883;52.662;5.196;2023-03-01T12:36:15;15.30;;;15.30;;
24787;SDS011;12883;52.662;5.196;2023-03-01T12:55:01;14.27;;;14.27;;
24787;SDS011;12883;52.662;5.196;2023-03-01T12:57:33;14.03;;;14.03;;
24787;SDS011;12883;52.662;5.196;2023-03-01T13:03:18;14.47;;;14.47;;
24787;SDS011;12883;52.662;5.196;2023-03-01T13:11:04;14.60;;;14.60;;
24787;SDS011;12883;52.662;5.196;2023-03-01T13:13:36;14.73;;;14.63;;
24787;SDS011;12883;52.662;5.196;2023-03-01T13:16:19;14.77;;;14.70;;
24787;SDS011;12883;52.662;5.196;2023-03-01T13:21:40;15.30;;;15.20;;
24787;SDS011;12883;52.662;5.196;2023-03-01T13:24:23;15.40;;;15.40;;
24787;SDS011;12883;52.662;5.196;2023-03-01T13:27:49;14.10;;;14.10;;
24787;SDS011;12883;52.662;5.196;2023-03-01T13:29:53;13.73;;;13.73;;
24787;SDS011;12883;52.662;5.196;2023-03-01T13:37:39;15.70;;;15.67;;
24787;SDS011;12883;52.662;5.196;2023-03-01T13:42:51;14.97;;;14.87;;
24787;SDS011;12883;52.662;5.196;2023-03-01T13:47:46;14.40;;;14.40;;
24787;SDS011;12883;52.662;5.196;2023-03-01T13:50:18;14.93;;;14.93;;
24787;SDS011;12883;52.662;5.196;2023-03-01T13:55:27;13.83;;;13.83;;
24787;SDS011;12883;52.662;5.196;2023-03-01T13:58:01;13.80;;;13.80;;
24787;SDS011;12883;52.662;5.196;2023-03-01T14:00:39;14.43;;;14.43;;
24787;SDS011;12883;52.662;5.196;2023-03-01T14:03:08;14.43;;;14.33;;
24787;SDS011;12883;52.662;5.196;2023-03-01T14:05:40;14.97;;;14.93;;
24787;SDS011;12883;52.662;5.196;2023-03-01T14:08:18;13.93;;;13.93;;
24787;SDS011;12883;52.662;5.196;2023-03-01T14:13:23;14.87;;;14.87;;
24787;SDS011;12883;52.662;5.196;2023-03-01T14:16:10;13.97;;;13.97;;
24787;SDS011;12883;52.662;5.196;2023-03-01T14:19:05;15.07;;;14.97;;
24787;SDS011;12883;52.662;5.196;2023-03-01T14:21:45;14.70;;;14.70;;
24787;SDS011;12883;52.662;5.196;2023-03-01T14:24:21;14.40;;;14.40;;
24787;SDS011;12883;52.662;5.196;2023-03-01T14:26:48;14.53;;;14.53;;
24787;SDS011;12883;52.662;5.196;2023-03-01T14:29:32;14.00;;;14.00;;
24787;SDS011;12883;52.662;5.196;2023-03-01T14:34:42;13.40;;;13.40;;
24787;SDS011;12883;52.662;5.196;2023-03-01T14:37:32;14.10;;;14.07;;
24787;SDS011;12883;52.662;5.196;2023-03-01T14:40:00;14.57;;;14.57;;
24787;SDS011;12883;52.662;5.196;2023-03-01T14:42:28;13.57;;;13.57;;
24787;SDS011;12883;52.662;5.196;2023-03-01T14:44:56;12.80;;;12.80;;
24787;SDS011;12883;52.662;5.196;2023-03-01T14:50:00;11.47;;;11.47;;
24787;SDS011;12883;52.662;5.196;2023-03-01T14:52:34;10.53;;;10.53;;
24787;SDS011;12883;52.662;5.196;2023-03-01T14:55:02;12.40;;;12.40;;
24787;SDS011;12883;52.662;5.196;2023-03-01T14:57:30;11.73;;;11.73;;
24787;SDS011;12883;52.662;5.196;2023-03-01T15:00:00;11.97;;;11.97;;
24787;SDS011;12883;52.662;5.196;2023-03-01T15:02:32;11.70;;;11.70;;
24787;SDS011;12883;52.662;5.196;2023-03-01T15:04:58;12.70;;;12.70;;
24787;SDS011;12883;52.662;5.196;2023-03-01T15:07:33;13.53;;;13.53;;
24787;SDS011;12883;52.662;5.196;2023-03-01T15:10:02;13.60;;;13.60;;
24787;SDS011;12883;52.662;5.196;2023-03-01T15:14:55;14.03;;;14.03;;
24787;SDS011;12883;52.662;5.196;2023-03-01T15:17:30;14.43;;;14.43;;
24787;SDS011;12883;52.662;5.196;2023-03-01T15:20:01;14.20;;;14.10;;
24787;SDS011;12883;52.662;5.196;2023-03-01T15:22:29;13.53;;;13.53;;
24787;SDS011;12883;52.662;5.196;2023-03-01T15:24:55;14.23;;;14.13;;
24787;SDS011;12883;52.662;5.196;2023-03-01T15:27:21;14.17;;;14.17;;
24787;SDS011;12883;52.662;5.196;2023-03-01T15:29:49;14.23;;;14.23;;
24787;SDS011;12883;52.662;5.196;2023-03-01T15:32:28;14.70;;;14.60;;
24787;SDS011;12883;52.662;5.196;2023-03-01T15:34:55;14.70;;;14.70;;
24787;SDS011;12883;52.662;5.196;2023-03-01T15:42:56;14.27;;;14.27;;
24787;SDS011;12883;52.662;5.196;2023-03-01T15:45:25;14.20;;;14.13;;
24787;SDS011;12883;52.662;5.196;2023-03-01T15:48:00;13.77;;;13.77;;
24787;SDS011;12883;52.662;5.196;2023-03-01T15:52:58;13.23;;;13.23;;
24787;SDS011;12883;52.662;5.196;2023-03-01T15:55:26;13.30;;;13.30;;
24787;SDS011;12883;52.662;5.196;2023-03-01T15:58:02;12.90;;;12.90;;
24787;SDS011;12883;52.662;5.196;2023-03-01T16:00:30;13.50;;;13.50;;
24787;SDS011;12883;52.662;5.196;2023-03-01T16:02:55;13.27;;;13.27;;
24787;SDS011;12883;52.662;5.196;2023-03-01T16:05:22;13.20;;;13.20;;
24787;SDS011;12883;52.662;5.196;2023-03-01T16:07:50;12.47;;;12.47;;
24787;SDS011;12883;52.662;5.196;2023-03-01T16:10:16;12.27;;;12.27;;
24787;SDS011;12883;52.662;5.196;2023-03-01T16:12:42;12.40;;;12.40;;
24787;SDS011;12883;52.662;5.196;2023-03-01T16:15:12;12.90;;;12.90;;
24787;SDS011;12883;52.662;5.196;2023-03-01T16:17:41;13.10;;;13.00;;
24787;SDS011;12883;52.662;5.196;2023-03-01T16:20:06;13.80;;;13.80;;
24787;SDS011;12883;52.662;5.196;2023-03-01T16:22:32;13.47;;;13.47;;
24787;SDS011;12883;52.662;5.196;2023-03-01T16:24:58;13.20;;;13.20;;
24787;SDS011;12883;52.662;5.196;2023-03-01T16:27:23;13.67;;;13.67;;
24787;SDS011;12883;52.662;5.196;2023-03-01T16:29:48;13.63;;;13.63;;
24787;SDS011;12883;52.662;5.196;2023-03-01T16:32:14;14.13;;;14.13;;
24787;SDS011;12883;52.662;5.196;2023-03-01T16:34:39;14.03;;;14.03;;
24787;SDS011;12883;52.662;5.196;2023-03-01T16:37:04;14.50;;;14.47;;
24787;SDS011;12883;52.662;5.196;2023-03-01T16:39:30;14.00;;;13.90;;
24787;SDS011;12883;52.662;5.196;2023-03-01T16:41:55;15.03;;;15.00;;
24787;SDS011;12883;52.662;5.196;2023-03-01T16:44:20;14.23;;;14.20;;
24787;SDS011;12883;52.662;5.196;2023-03-01T16:46:46;14.27;;;14.17;;
24787;SDS011;12883;52.662;5.196;2023-03-01T16:49:11;15.30;;;15.20;;